Time;durP1;ratioP1;P1;durP2;ratioP2;P2;SDS_P1;SDS_P2;PMS_P1;PMS_P2;Temp;Humidity;BMP_temperature;BMP_pressure;BME280_temperature;BME280_humidity;BME280_pressure;Samples;Min_cycle;Max_cycle;Signal;HPM_P1;HPM_P2
2021/03/12 00:00:55;;;;;;;43.58;21.08;;;;;;;-2.09;100.00;97815.88;5023555;28;20048;-92
2021/03/12 00:03:24;;;;;;;37.92;19.30;;;;;;;-1.92;100.00;97823.59;5021746;28;20025;-92
2021/03/12 00:05:55;;;;;;;23.67;12.05;;;;;;;-1.48;100.00;97825.81;5039846;28;20025;-92
2021/03/12 00:08:28;;;;;;;19.27;7.25;;;;;;;-0.61;99.31;97818.63;5022994;28;20115;-92
2021/03/12 00:10:54;;;;;;;15.70;8.20;;;;;;;0.04;94.28;97817.63;5022875;28;20025;-91
2021/03/12 00:13:20;;;;;;;16.77;8.20;;;;;;;0.60;89.64;97814.03;5023228;28;20550;-91
2021/03/12 00:15:46;;;;;;;23.23;12.80;;;;;;;0.29;88.05;97813.69;5022451;28;20025;-91
2021/03/12 00:18:12;;;;;;;30.52;15.52;;;;;;;-0.22;89.31;97801.41;5023027;28;20021;-91
2021/03/12 00:20:39;;;;;;;27.38;13.52;;;;;;;-0.40;92.18;97796.44;5038954;28;20070;-91
2021/03/12 00:23:05;;;;;;;9.00;4.72;;;;;;;0.47;89.97;97784.44;5022693;28;20048;-93
2021/03/12 00:25:36;;;;;;;9.13;4.78;;;;;;;0.97;85.40;97774.69;5022551;28;20411;-93
2021/03/12 00:28:03;;;;;;;11.32;6.40;;;;;;;1.47;82.81;97771.84;5022571;28;20040;-93
2021/03/12 00:30:29;;;;;;;12.10;6.60;;;;;;;1.79;80.27;97778.13;5022588;28;20423;-90
2021/03/12 00:32:54;;;;;;;11.98;6.10;;;;;;;2.00;78.04;97778.47;5023251;28;20107;-93
2021/03/12 00:35:20;;;;;;;7.60;3.83;;;;;;;2.25;76.41;97773.44;5024725;28;20063;-91
2021/03/12 00:37:45;;;;;;;10.23;4.93;;;;;;;2.19;75.80;97752.50;5023884;28;20028;-91
2021/03/12 00:40:14;;;;;;;21.20;11.75;;;;;;;1.62;77.24;97755.66;5022241;28;20029;-92
2021/03/12 00:42:40;;;;;;;22.00;11.45;;;;;;;1.14;80.48;97745.38;5022543;28;20029;-91
2021/03/12 00:45:07;;;;;;;23.60;12.90;;;;;;;0.55;84.41;97723.78;5022689;28;20029;-91
2021/03/12 00:47:33;;;;;;;15.10;7.47;;;;;;;0.53;86.06;97720.28;5022976;28;20025;-92
2021/03/12 00:49:58;;;;;;;5.93;4.03;;;;;;;1.14;82.08;97698.81;5023329;28;20033;-90
2021/03/12 00:52:24;;;;;;;10.13;5.55;;;;;;;1.69;79.48;97694.91;5023107;28;20067;-91
2021/03/12 00:54:49;;;;;;;8.40;4.15;;;;;;;2.07;76.59;97694.78;5023548;28;20036;-92
2021/03/12 00:57:15;;;;;;;6.18;3.72;;;;;;;2.24;73.93;97686.44;5022693;28;20028;-93
2021/03/12 00:59:41;;;;;;;6.75;3.72;;;;;;;2.52;72.38;97692.69;5043083;28;20059;-92
2021/03/12 01:02:06;;;;;;;4.88;3.20;;;;;;;2.61;72.50;97693.28;5026494;28;20481;-91
2021/03/12 01:04:32;;;;;;;4.38;2.85;;;;;;;2.63;70.99;97686.19;5023137;28;20500;-93
2021/03/12 01:06:57;;;;;;;10.38;6.03;;;;;;;2.58;72.11;97687.22;5023449;28;20025;-90
2021/03/12 01:09:23;;;;;;;5.72;3.58;;;;;;;2.67;70.47;97677.28;5022289;28;20033;-90
2021/03/12 01:11:48;;;;;;;5.32;3.38;;;;;;;2.72;69.72;97678.00;5024031;28;20427;-92
2021/03/12 01:14:14;;;;;;;4.82;2.78;;;;;;;2.83;69.62;97687.41;5023111;28;20035;-87
2021/03/12 01:16:39;;;;;;;4.57;2.78;;;;;;;2.76;70.28;97672.63;5024735;28;20028;-93
2021/03/12 01:19:05;;;;;;;11.52;5.97;;;;;;;2.83;70.66;97667.09;5023441;28;20087;-92
2021/03/12 01:21:31;;;;;;;7.00;4.07;;;;;;;2.78;70.87;97657.59;5024177;28;20492;-92
2021/03/12 01:23:56;;;;;;;8.63;3.97;;;;;;;2.77;71.22;97671.72;5024248;28;20037;-91
2021/03/12 01:26:22;;;;;;;9.80;4.93;;;;;;;2.87;69.46;97674.03;5041635;28;20040;-92
2021/03/12 01:28:47;;;;;;;6.47;4.18;;;;;;;2.87;69.49;97678.44;5025495;28;20029;-91
2021/03/12 01:31:13;;;;;;;5.90;3.75;;;;;;;2.95;69.04;97671.19;5025305;28;20028;-90
2021/03/12 01:33:39;;;;;;;8.10;3.88;;;;;;;3.00;68.32;97661.34;5024653;28;20131;-93
2021/03/12 01:36:04;;;;;;;5.40;3.00;;;;;;;3.01;68.58;97655.16;5021720;28;20032;-91
2021/03/12 01:38:30;;;;;;;19.23;8.88;;;;;;;2.99;68.92;97662.22;5019847;28;20040;-92
2021/03/12 01:40:56;;;;;;;6.53;4.22;;;;;;;3.14;67.61;97654.72;5021118;28;20029;-94
2021/03/12 01:43:21;;;;;;;8.05;5.13;;;;;;;3.07;68.22;97644.41;5021294;28;20471;-90
2021/03/12 01:45:49;;;;;;;9.27;5.25;;;;;;;3.11;68.32;97661.84;5021133;28;20087;-90
2021/03/12 01:48:17;;;;;;;12.90;5.32;;;;;;;3.00;69.94;97679.81;5020912;28;20036;-91
2021/03/12 01:50:46;;;;;;;8.63;5.10;;;;;;;2.99;69.11;97667.53;5038370;28;20033;-93
2021/03/12 01:53:18;;;;;;;16.15;6.97;;;;;;;3.05;68.74;97676.13;5023715;28;20025;-92
2021/03/12 01:55:44;;;;;;;10.47;5.33;;;;;;;3.08;68.04;97677.81;5041242;28;20025;-94
2021/03/12 01:58:10;;;;;;;10.38;4.82;;;;;;;3.07;68.43;97654.97;5022638;28;20037;-91
2021/03/12 02:00:35;;;;;;;11.13;6.22;;;;;;;2.96;69.12;97646.47;5023679;28;20044;-93
2021/03/12 02:03:04;;;;;;;12.20;4.63;;;;;;;2.82;70.09;97657.47;5022185;28;20029;-92
2021/03/12 02:05:30;;;;;;;10.02;6.10;;;;;;;2.65;70.69;97634.19;5022530;28;20492;-92
2021/03/12 02:07:56;;;;;;;12.23;6.22;;;;;;;2.63;70.81;97643.94;5022643;28;20041;-93
2021/03/12 02:10:24;;;;;;;7.00;4.53;;;;;;;2.62;70.50;97649.25;5022134;28;20040;-92
2021/03/12 02:13:24;;;;;;;8.45;4.95;;;;;;;2.64;70.48;97636.91;5025184;28;20091;-93
2021/03/12 02:16:11;;;;;;;11.80;5.53;;;;;;;2.56;70.87;97615.13;5041083;28;20106;-91
2021/03/12 02:18:53;;;;;;;12.13;7.53;;;;;;;2.47;71.33;97633.84;5022632;28;20040;-92
2021/03/12 02:21:28;;;;;;;4.78;3.45;;;;;;;2.43;71.41;97625.16;5024348;28;20040;-91
2021/03/12 02:24:31;;;;;;;5.82;4.32;;;;;;;2.56;70.35;97637.09;5023334;28;20120;-91
2021/03/12 02:26:57;;;;;;;14.27;7.32;;;;;;;2.56;71.15;97621.25;5031116;28;20092;-91
2021/03/12 02:29:23;;;;;;;12.52;5.82;;;;;;;2.59;69.63;97610.63;5037663;28;20056;-91
2021/03/12 02:31:52;;;;;;;8.25;4.35;;;;;;;2.55;69.76;97603.69;5022633;28;20056;-92
2021/03/12 02:34:19;;;;;;;10.32;5.80;;;;;;;2.68;68.60;97597.13;5021846;28;20116;-91
2021/03/12 02:36:48;;;;;;;11.88;6.35;;;;;;;2.71;68.24;97594.41;5021722;28;20032;-94
2021/03/12 02:39:17;;;;;;;10.13;6.07;;;;;;;2.61;69.45;97577.13;5022542;28;20029;-90
2021/03/12 02:41:44;;;;;;;10.07;5.35;;;;;;;2.70;68.44;97566.28;5020401;28;20029;-90
2021/03/12 02:44:09;;;;;;;7.60;4.38;;;;;;;2.70;68.16;97545.16;5020263;28;20037;-91
2021/03/12 02:46:36;;;;;;;8.20;4.43;;;;;;;2.81;68.15;97549.22;5020745;28;20506;-89
2021/03/12 02:49:02;;;;;;;9.15;5.60;;;;;;;2.90;67.40;97555.09;5021400;28;20021;-92
2021/03/12 02:51:28;;;;;;;7.25;4.28;;;;;;;2.97;67.54;97535.50;5020682;28;20028;-91
2021/03/12 02:53:54;;;;;;;5.25;3.05;;;;;;;3.02;67.13;97530.03;5021788;28;20026;-92
2021/03/12 02:56:21;;;;;;;6.60;3.97;;;;;;;2.98;67.66;97526.66;5021442;28;20130;-91
2021/03/12 02:58:47;;;;;;;8.35;4.95;;;;;;;3.01;67.30;97523.06;5021426;28;20036;-91
2021/03/12 03:01:13;;;;;;;7.72;3.60;;;;;;;3.07;66.53;97521.09;5020506;28;20456;-92
2021/03/12 03:03:40;;;;;;;12.82;6.22;;;;;;;2.99;67.68;97511.66;5020618;28;20037;-90
2021/03/12 03:06:07;;;;;;;8.07;3.95;;;;;;;3.03;66.54;97508.00;5022195;28;20032;-92
2021/03/12 03:08:35;;;;;;;5.07;3.28;;;;;;;3.12;65.37;97500.66;5021771;28;20013;-91
2021/03/12 03:11:04;;;;;;;6.07;3.85;;;;;;;3.14;64.54;97492.66;5026525;28;20023;-93
2021/03/12 03:13:37;;;;;;;6.30;4.00;;;;;;;3.25;65.30;97517.81;5025480;28;20020;-92
2021/03/12 03:16:07;;;;;;;9.13;5.40;;;;;;;3.22;64.89;97525.00;5020541;28;20071;-92
2021/03/12 03:18:38;;;;;;;3.72;2.35;;;;;;;3.32;63.54;97523.78;5022895;28;20115;-89
2021/03/12 03:21:04;;;;;;;8.07;3.97;;;;;;;3.35;62.02;97512.22;5023272;28;20420;-91
2021/03/12 03:23:30;;;;;;;3.08;2.25;;;;;;;3.49;62.28;97528.47;5023936;28;20025;-92
2021/03/12 03:25:56;;;;;;;8.27;4.80;;;;;;;3.41;63.83;97514.66;5023720;28;20036;-92
2021/03/12 03:28:23;;;;;;;10.80;4.85;;;;;;;3.33;63.59;97514.91;5023334;28;20036;-91
2021/03/12 03:30:49;;;;;;;8.77;4.80;;;;;;;3.29;62.98;97492.16;5041785;28;20033;-91
2021/03/12 03:33:15;;;;;;;11.45;4.63;;;;;;;3.24;63.21;97484.38;5024738;28;20021;-92
2021/03/12 03:35:40;;;;;;;7.63;3.83;;;;;;;3.35;62.39;97501.66;5025525;28;20027;-89
2021/03/12 03:38:06;;;;;;;13.38;5.88;;;;;;;3.32;62.49;97476.19;5024196;28;20029;-90
2021/03/12 03:40:32;;;;;;;11.02;4.97;;;;;;;3.31;62.52;97486.81;5025012;28;20056;-92
2021/03/12 03:42:59;;;;;;;6.07;3.42;;;;;;;3.34;62.13;97503.44;5024860;28;20061;-93
2021/03/12 03:45:29;;;;;;;5.25;3.30;;;;;;;3.28;62.56;97511.56;5024564;28;20094;-91
2021/03/12 03:47:56;;;;;;;9.88;5.38;;;;;;;3.25;63.31;97499.34;5024906;28;20029;-91
2021/03/12 03:50:22;;;;;;;6.63;3.40;;;;;;;3.23;63.30;97492.38;5023336;28;20421;-91
2021/03/12 03:52:48;;;;;;;6.60;3.88;;;;;;;3.14;62.97;97477.66;5023025;28;20035;-90
2021/03/12 03:55:14;;;;;;;13.77;7.35;;;;;;;3.20;63.38;97479.22;5023584;28;20407;-91
2021/03/12 03:57:41;;;;;;;13.02;7.10;;;;;;;3.11;63.34;97468.97;5022223;28;20082;-91
2021/03/12 04:00:07;;;;;;;6.47;3.90;;;;;;;3.14;62.92;97482.09;5022549;28;20424;-90
2021/03/12 04:02:34;;;;;;;10.90;5.32;;;;;;;3.13;63.03;97485.66;5022374;28;20028;-90
2021/03/12 04:05:00;;;;;;;7.30;3.80;;;;;;;3.08;63.36;97490.22;5022046;28;20060;-91
2021/03/12 04:07:25;;;;;;;6.30;3.45;;;;;;;3.24;62.43;97499.38;5022946;28;20092;-91
2021/03/12 04:09:51;;;;;;;6.47;3.65;;;;;;;3.29;62.26;97471.03;5023079;28;20035;-91
2021/03/12 04:12:17;;;;;;;7.88;4.00;;;;;;;3.16;61.19;97475.00;5022681;28;20024;-92
2021/03/12 04:14:44;;;;;;;10.02;5.47;;;;;;;3.16;62.21;97489.06;5023425;28;20037;-91
2021/03/12 04:17:10;;;;;;;9.07;5.18;;;;;;;3.12;62.73;97497.13;5022998;28;20041;-91
2021/03/12 04:19:36;;;;;;;10.23;4.07;;;;;;;3.20;61.96;97513.59;5022461;28;20036;-90
2021/03/12 04:22:02;;;;;;;9.98;4.40;;;;;;;3.18;62.48;97489.88;5022541;28;20040;-90
2021/03/12 04:24:28;;;;;;;9.88;5.47;;;;;;;3.19;61.89;97498.66;5022467;28;20033;-90
2021/03/12 04:26:54;;;;;;;10.15;5.22;;;;;;;3.27;61.04;97499.25;5021888;28;20029;-91
2021/03/12 04:29:20;;;;;;;7.15;3.78;;;;;;;3.35;60.63;97491.94;5023103;28;20029;-91
2021/03/12 04:31:46;;;;;;;11.27;5.97;;;;;;;3.35;61.51;97485.78;5023078;28;20519;-91
2021/03/12 04:34:11;;;;;;;6.50;4.20;;;;;;;3.37;61.09;97473.38;5025618;28;20099;-90
2021/03/12 04:36:38;;;;;;;11.35;5.68;;;;;;;3.38;62.08;97481.28;5024479;28;20036;-91
2021/03/12 04:39:04;;;;;;;7.47;4.32;;;;;;;3.37;60.41;97446.94;5022784;28;20024;-94
2021/03/12 04:41:29;;;;;;;8.65;4.28;;;;;;;3.51;60.30;97471.97;5021530;28;20078;-93
2021/03/12 04:43:55;;;;;;;4.93;3.30;;;;;;;3.47;60.50;97488.00;5021528;28;20028;-92
2021/03/12 04:46:21;;;;;;;7.55;4.93;;;;;;;3.43;61.12;97495.19;5022472;28;20033;-91
2021/03/12 04:48:47;;;;;;;6.63;3.15;;;;;;;3.33;59.75;97479.69;5022660;28;20013;-91
2021/03/12 04:51:13;;;;;;;4.95;2.92;;;;;;;3.37;59.49;97483.97;5022758;28;20028;-92
2021/03/12 04:53:39;;;;;;;11.43;6.43;;;;;;;3.49;59.70;97508.19;5022477;28;20026;-89
2021/03/12 04:56:05;;;;;;;11.65;5.95;;;;;;;3.37;59.79;97499.81;5022849;28;20090;-93
2021/03/12 04:58:31;;;;;;;12.30;6.82;;;;;;;3.28;60.80;97523.00;5022470;28;20032;-90
2021/03/12 05:00:57;;;;;;;7.38;4.47;;;;;;;3.34;61.18;97551.00;5039213;28;20429;-91
2021/03/12 05:03:23;;;;;;;6.13;3.47;;;;;;;3.24;60.57;97546.94;5038999;28;20033;-91
2021/03/12 05:05:50;;;;;;;11.57;5.90;;;;;;;3.26;61.09;97566.28;5023023;28;20028;-91
2021/03/12 05:08:17;;;;;;;7.82;4.15;;;;;;;3.13;61.41;97573.72;5007554;28;20059;-89
2021/03/12 05:11:02;;;;;;;7.97;5.00;;;;;;;3.19;61.11;97562.97;5022801;28;20083;-93
2021/03/12 05:13:28;;;;;;;11.35;6.20;;;;;;;3.14;62.12;97577.22;5055134;28;20029;-90
2021/03/12 05:15:54;;;;;;;4.95;2.80;;;;;;;3.15;61.56;97576.31;5021903;28;20074;-92
2021/03/12 05:18:19;;;;;;;6.03;4.03;;;;;;;3.19;60.89;97575.31;5021393;28;20033;-91
2021/03/12 05:20:46;;;;;;;14.48;7.18;;;;;;;3.20;62.01;97575.25;5039211;28;20024;-90
2021/03/12 05:23:12;;;;;;;8.60;3.92;;;;;;;3.26;61.11;97545.13;5022329;28;20033;-92
2021/03/12 05:25:38;;;;;;;28.48;12.98;;;;;;;3.29;61.56;97545.03;5024416;28;20035;-93
2021/03/12 05:28:04;;;;;;;14.05;8.07;;;;;;;3.30;62.13;97544.09;5023175;28;20115;-87
2021/03/12 05:30:29;;;;;;;14.93;5.97;;;;;;;3.37;61.19;97550.91;5019900;28;20032;-89
2021/03/12 05:32:55;;;;;;;15.02;7.85;;;;;;;3.35;61.90;97557.16;5035114;28;20079;-86
2021/03/12 05:35:20;;;;;;;13.32;6.55;;;;;;;3.37;62.17;97563.25;5022195;28;20386;-90
2021/03/12 05:37:46;;;;;;;13.63;7.13;;;;;;;3.43;62.04;97578.91;5023151;28;20491;-90
2021/03/12 05:40:12;;;;;;;16.35;9.23;;;;;;;3.48;62.37;97583.13;5026655;28;20029;-90
2021/03/12 05:42:38;;;;;;;15.75;9.10;;;;;;;3.60;62.89;97597.75;5023835;28;20033;-91
2021/03/12 05:45:05;;;;;;;7.32;4.20;;;;;;;3.53;61.23;97620.88;5023377;28;20054;-92
2021/03/12 05:47:30;;;;;;;13.80;7.13;;;;;;;3.55;61.63;97624.31;5023277;28;20025;-92
2021/03/12 05:49:58;;;;;;;11.55;6.95;;;;;;;3.51;60.58;97614.75;5039114;28;20032;-88
2021/03/12 05:52:23;;;;;;;16.17;6.95;;;;;;;3.51;60.98;97593.59;5039675;28;20031;-91
2021/03/12 05:54:49;;;;;;;17.38;8.00;;;;;;;3.61;60.41;97579.16;5021763;28;20060;-91
2021/03/12 05:57:15;;;;;;;16.27;8.63;;;;;;;3.67;60.88;97600.09;5021556;28;20500;-90
2021/03/12 05:59:40;;;;;;;16.73;5.43;;;;;;;3.60;60.34;97598.56;5021264;28;20065;-89
2021/03/12 06:02:06;;;;;;;10.27;5.05;;;;;;;3.70;60.11;97612.34;5022581;28;20056;-90
2021/03/12 06:04:32;;;;;;;46.97;22.15;;;;;;;3.74;60.65;97625.44;5020775;28;20091;-90
2021/03/12 06:06:57;;;;;;;14.77;7.75;;;;;;;3.78;59.82;97634.13;5020979;28;20067;-91
2021/03/12 06:09:23;;;;;;;14.93;8.23;;;;;;;3.72;60.43;97640.47;5021606;28;20036;-90
2021/03/12 06:11:53;;;;;;;19.98;10.15;;;;;;;3.65;61.43;97641.63;5022654;28;20052;-87
2021/03/12 06:14:18;;;;;;;10.55;5.43;;;;;;;3.75;60.72;97652.75;5023440;28;20140;-89
2021/03/12 06:16:49;;;;;;;12.48;7.45;;;;;;;3.72;61.18;97672.22;5024700;28;20489;-90
2021/03/12 06:19:18;;;;;;;12.02;7.10;;;;;;;3.91;60.84;97687.50;5023866;28;20024;-88
2021/03/12 06:21:48;;;;;;;11.20;6.43;;;;;;;3.83;60.03;97685.09;5022973;28;20064;-88
2021/03/12 06:24:26;;;;;;;15.38;8.77;;;;;;;3.92;60.43;97679.50;5021921;28;20404;-89
2021/03/12 06:26:52;;;;;;;13.73;7.25;;;;;;;4.05;59.31;97648.19;5043857;28;20057;-89
2021/03/12 06:29:18;;;;;;;8.68;4.68;;;;;;;4.27;58.95;97667.72;5025558;28;20039;-87
2021/03/12 06:31:51;;;;;;;14.70;6.88;;;;;;;4.48;57.95;97701.38;5025367;28;20013;-88
2021/03/12 06:34:17;;;;;;;21.60;8.48;;;;;;;4.65;56.74;97666.31;5033071;28;20029;-92
2021/03/12 06:36:46;;;;;;;23.67;11.73;;;;;;;4.52;57.60;97649.16;5028900;28;20017;-90
2021/03/12 06:39:47;;;;;;;14.65;8.00;;;;;;;4.06;58.03;97619.03;5030349;28;20029;-87
2021/03/12 06:42:26;;;;;;;;;;;;;;;;;;;;;
2021/03/12 06:44:54;;;;;;;16.98;10.05;;;;;;;4.28;57.61;97651.75;5050983;28;20096;-89
2021/03/12 06:47:37;;;;;;;16.48;8.30;;;;;;;4.02;58.37;97595.38;5033198;28;20032;-87
2021/03/12 06:50:21;;;;;;;17.55;9.57;;;;;;;4.51;58.45;97669.50;5036519;28;20028;-87
2021/03/12 06:52:52;;;;;;;30.95;15.95;;;;;;;4.33;57.73;97630.44;5037627;28;20100;-87
2021/03/12 06:55:18;;;;;;;20.58;9.20;;;;;;;4.58;56.75;97643.66;5032335;28;20029;-89
2021/03/12 06:57:43;;;;;;;16.60;8.30;;;;;;;5.02;56.54;97689.66;5031497;28;20031;-88
2021/03/12 07:00:09;;;;;;;10.98;6.25;;;;;;;5.36;54.76;97724.59;5027548;28;20083;-87
2021/03/12 07:02:36;;;;;;;11.50;6.30;;;;;;;5.29;54.81;97707.19;5030910;28;20033;-91
2021/03/12 07:05:04;;;;;;;14.18;6.90;;;;;;;5.60;54.50;97728.94;5029408;28;20400;-88
2021/03/12 07:07:41;;;;;;;13.35;6.95;;;;;;;5.77;53.56;97717.66;5023973;28;20024;-90
2021/03/12 07:10:08;;;;;;;11.18;6.75;;;;;;;5.84;53.35;97727.97;5028047;28;20044;-87
2021/03/12 07:12:47;;;;;;;16.65;9.93;;;;;;;6.00;54.01;97718.47;5008493;28;20026;-89
2021/03/12 07:15:14;;;;;;;12.40;7.38;;;;;;;6.27;52.10;97732.41;5027998;28;20056;-89
2021/03/12 07:17:40;;;;;;;21.58;10.50;;;;;;;6.22;51.58;97714.94;5023739;28;20033;-89
2021/03/12 07:20:08;;;;;;;14.00;5.22;;;;;;;6.25;51.54;97714.78;5033088;28;20049;-91
2021/03/12 07:22:36;;;;;;;19.58;8.93;;;;;;;6.33;51.48;97710.03;5032973;28;20027;-88
2021/03/12 07:25:06;;;;;;;9.20;4.78;;;;;;;6.65;49.70;97703.31;5031036;28;20124;-88
2021/03/12 07:27:32;;;;;;;10.90;5.00;;;;;;;6.60;49.23;97714.16;5030570;28;20035;-88
2021/03/12 07:30:00;;;;;;;12.93;5.80;;;;;;;6.58;49.40;97697.44;5031860;28;20036;-90
2021/03/12 07:32:29;;;;;;;13.40;7.03;;;;;;;6.69;49.33;97668.59;5033648;28;20032;-90
2021/03/12 07:35:26;;;;;;;;;;;;;;;;;;;;;
2021/03/12 07:37:53;;;;;;;17.25;10.23;;;;;;;7.49;50.55;97682.59;5055721;28;20060;-90
2021/03/12 07:40:33;;;;;;;23.27;13.10;;;;;;;7.39;52.40;97689.28;5037731;28;20017;-88
2021/03/12 07:43:12;;;;;;;;;;;;;;;;;;;;;
2021/03/12 07:45:41;;;;;;;15.68;7.47;;;;;;;7.93;48.01;97660.00;5053764;28;20056;-89
2021/03/12 07:48:06;;;;;;;24.30;11.27;;;;;;;8.29;49.56;97672.44;5034628;28;20034;-90
2021/03/12 07:50:35;;;;;;;17.05;9.20;;;;;;;8.04;49.26;97617.72;5035570;28;20076;-90
2021/03/12 07:53:19;;;;;;;13.88;8.82;;;;;;;8.74;47.92;97675.38;5052438;28;20047;-90
2021/03/12 07:56:32;;;;;;;20.42;10.25;;;;;;;8.73;47.77;97627.47;5037691;28;20032;-90
2021/03/12 07:59:03;;;;;;;;;;;;;;;9.77;46.74;97675.03;5004735;28;20041;-90
2021/03/12 08:01:55;;;;;;;17.33;10.18;;;;;;;9.48;47.70;97643.75;5037851;28;19913;-90
2021/03/12 08:04:55;;;;;;;16.98;9.75;;;;;;;9.95;47.03;97678.47;5038655;28;20107;-90
2021/03/12 08:07:20;;;;;;;21.40;9.93;;;;;;;10.21;47.26;97656.50;5031898;28;20028;-90
2021/03/12 08:09:54;;;;;;;16.17;9.43;;;;;;;9.16;48.62;97657.09;5051962;28;20032;-90
2021/03/12 08:12:39;;;;;;;22.10;9.20;;;;;;;9.08;50.17;97683.31;5035867;28;20512;-89
2021/03/12 08:15:30;;;;;;;19.85;9.80;;;;;;;9.11;49.28;97660.94;5034858;28;20041;-87
2021/03/12 08:17:59;;;;;;;19.15;10.30;;;;;;;9.06;49.08;97658.53;5052628;28;20028;-89
2021/03/12 08:20:42;;;;;;;21.15;10.43;;;;;;;8.30;49.74;97639.53;5050649;28;20025;-89
2021/03/12 08:23:12;;;;;;;26.58;12.70;;;;;;;8.14;52.45;97658.06;5030978;28;20061;-88
2021/03/12 08:25:43;;;;;;;28.90;16.45;;;;;;;7.89;51.47;97645.13;5030921;28;20043;-87
2021/03/12 08:28:12;;;;;;;35.83;15.27;;;;;;;7.74;52.97;97658.31;5026449;28;20021;-87
2021/03/12 08:30:37;;;;;;;32.20;15.85;;;;;;;7.47;54.00;97653.41;5043184;28;20029;-88
2021/03/12 08:33:07;;;;;;;23.10;13.90;;;;;;;7.87;51.34;97649.66;5045194;28;20019;-88
2021/03/12 08:35:33;;;;;;;21.85;12.15;;;;;;;8.34;50.47;97652.59;5029474;28;20039;-89
2021/03/12 08:38:25;;;;;;;28.63;13.27;;;;;;;9.65;49.40;97659.72;5039400;28;20548;-89
2021/03/12 08:40:59;;;;;;;51.75;30.30;;;;;;;10.31;44.62;97669.22;5038703;28;20412;-89
2021/03/12 08:43:28;;;;;;;30.92;17.52;;;;;;;10.53;45.91;97665.25;5029405;28;20033;-90
2021/03/12 08:45:56;;;;;;;30.05;15.35;;;;;;;11.45;43.02;97683.59;5030451;28;20033;-90
2021/03/12 08:48:22;;;;;;;64.05;28.90;;;;;;;11.50;41.70;97653.84;5031010;28;20090;-90
2021/03/12 08:51:11;;;;;;;91.90;54.05;;;;;;;13.09;38.69;97660.06;5049422;28;20088;-92
2021/03/12 08:53:50;;;;;;;40.80;21.88;;;;;;;13.77;38.08;97671.28;5051554;28;20025;-90
2021/03/12 08:56:24;;;;;;;79.10;48.55;;;;;;;15.09;35.23;97658.53;5037003;28;20036;-91
2021/03/12 08:58:52;;;;;;;50.60;32.22;;;;;;;16.28;33.03;97647.91;5034977;28;20086;-90
2021/03/12 09:01:21;;;;;;;44.95;25.42;;;;;;;16.59;32.21;97636.28;5032871;28;20052;-91
2021/03/12 09:03:51;;;;;;;40.50;24.33;;;;;;;15.39;35.18;97649.84;5034016;28;20039;-90
2021/03/12 09:06:29;;;;;;;38.42;22.83;;;;;;;13.61;37.88;97648.28;5033548;28;20101;-91
2021/03/12 09:08:58;;;;;;;36.65;22.15;;;;;;;12.66;39.58;97639.81;5033963;28;20112;-89
2021/03/12 09:11:27;;;;;;;28.75;16.58;;;;;;;13.53;37.63;97616.59;5031532;28;20089;-92
2021/03/12 09:13:58;;;;;;;26.63;16.42;;;;;;;14.88;35.53;97625.19;5031527;28;20056;-91
2021/03/12 09:16:25;;;;;;;27.42;16.67;;;;;;;15.73;34.61;97625.50;5030710;28;20025;-91
2021/03/12 09:18:53;;;;;;;22.70;14.02;;;;;;;16.83;30.97;97603.63;5031130;28;20029;-90
2021/03/12 09:21:23;;;;;;;19.52;12.02;;;;;;;17.14;31.03;97615.31;5034388;28;20024;-90
2021/03/12 09:24:07;;;;;;;23.63;13.32;;;;;;;17.18;30.98;97614.94;5030925;28;20491;-90
2021/03/12 09:26:36;;;;;;;20.63;14.52;;;;;;;17.65;30.01;97591.84;5050453;28;20039;-93
2021/03/12 09:29:07;;;;;;;24.35;15.60;;;;;;;18.11;29.51;97579.53;5034884;28;20484;-93
2021/03/12 09:31:36;;;;;;;24.27;14.75;;;;;;;18.71;28.48;97581.13;5027627;28;20029;-89
2021/03/12 09:34:06;;;;;;;31.25;18.75;;;;;;;19.41;27.95;97583.44;5023777;28;20029;-89
2021/03/12 09:36:36;;;;;;;22.20;14.75;;;;;;;18.02;29.96;97592.06;5023466;28;20021;-87
2021/03/12 09:39:09;;;;;;;24.50;13.23;;;;;;;16.44;32.24;97596.19;5030722;28;20039;-90
2021/03/12 09:41:35;;;;;;;22.55;12.20;;;;;;;15.69;32.36;97588.09;5049894;28;20024;-90
2021/03/12 09:44:15;;;;;;;23.10;13.30;;;;;;;15.90;31.76;97609.78;5033697;28;20079;-90
2021/03/12 09:46:46;;;;;;;31.92;14.98;;;;;;;15.71;32.46;97613.97;5031565;28;20024;-89
2021/03/12 09:49:35;;;;;;;10.57;6.88;;;;;;;16.10;28.20;97571.19;5024835;28;20036;-87
2021/03/12 09:52:16;;;;;;;15.60;9.70;;;;;;;18.77;25.64;97569.69;4997090;28;20110;-88
2021/03/12 09:54:44;;;;;;;17.50;7.25;;;;;;;20.63;23.91;97570.22;5026451;28;20440;-88
2021/03/12 09:57:20;;;;;;;10.30;5.70;;;;;;;20.60;21.71;97546.06;5023456;28;20577;-89
2021/03/12 09:59:52;;;;;;;15.48;4.82;;;;;;;19.72;23.27;97546.00;5021942;28;20112;-91
2021/03/12 10:02:18;;;;;;;6.73;4.83;;;;;;;16.72;25.76;97572.13;5029489;28;20393;-90
2021/03/12 10:04:54;;;;;;;12.43;5.90;;;;;;;15.98;26.56;97561.41;5030840;28;20025;-87
2021/03/12 10:07:21;;;;;;;8.40;5.30;;;;;;;16.02;27.42;97568.28;5031362;28;20036;-89
2021/03/12 10:09:49;;;;;;;15.10;7.63;;;;;;;15.54;28.90;97565.06;5032907;28;20469;-89
2021/03/12 10:12:16;;;;;;;14.57;7.53;;;;;;;15.01;29.59;97555.91;5030940;28;20048;-88
2021/03/12 10:14:47;;;;;;;11.50;6.90;;;;;;;14.17;31.61;97555.34;5048419;28;20032;-88
2021/03/12 10:17:32;;;;;;;;;;;;;;;;;;;;;
2021/03/12 10:20:09;;;;;;;;;;;;;;;;;;;;;
2021/03/12 10:22:38;;;;;;;10.15;5.15;;;;;;;18.51;25.20;97518.00;5055888;28;20052;-90
2021/03/12 10:25:23;;;;;;;12.00;7.22;;;;;;;20.62;25.16;97578.50;5015504;28;20545;-91
2021/03/12 10:28:07;;;;;;;15.48;6.68;;;;;;;21.30;22.70;97544.19;5015453;28;20100;-90
2021/03/12 10:30:33;;;;;;;9.75;6.97;;;;;;;20.41;23.90;97559.81;5013992;28;20035;-90
2021/03/12 10:33:02;;;;;;;17.23;12.00;;;;;;;21.45;22.05;97545.28;5026142;28;20083;-87
2021/03/12 10:35:49;;;;;;;23.83;10.68;;;;;;;22.67;20.18;97533.75;5023481;28;20037;-88
2021/03/12 10:38:19;;;;;;;27.02;13.68;;;;;;;23.15;20.15;97522.78;5023953;28;20028;-89
2021/03/12 10:40:50;;;;;;;9.90;6.38;;;;;;;23.37;19.96;97520.34;5026184;28;20373;-90
2021/03/12 10:43:24;;;;;;;12.73;8.95;;;;;;;23.59;20.10;97515.00;5025322;28;20032;-89
2021/03/12 10:45:56;;;;;;;14.35;8.05;;;;;;;23.70;20.28;97513.75;5024158;28;20033;-88
2021/03/12 10:48:27;;;;;;;12.88;8.75;;;;;;;24.64;19.47;97521.75;5040694;28;20125;-88
2021/03/12 10:51:03;;;;;;;12.65;7.82;;;;;;;24.64;19.19;97517.09;5023601;28;20112;-88
2021/03/12 10:53:29;;;;;;;17.33;8.40;;;;;;;24.55;21.58;97509.16;5023129;28;20025;-88
2021/03/12 10:56:03;;;;;;;11.45;6.18;;;;;;;24.37;19.06;97519.53;5039233;28;20091;-88
2021/03/12 10:58:34;;;;;;;12.15;6.32;;;;;;;25.25;17.62;97507.84;5023720;28;20104;-90
2021/03/12 11:01:15;;;;;;;11.48;7.00;;;;;;;25.14;18.65;97507.44;5022781;28;20498;-91
2021/03/12 11:03:45;;;;;;;17.88;8.98;;;;;;;24.62;18.63;97500.03;5040423;28;20028;-89
2021/03/12 11:06:11;;;;;;;14.77;9.02;;;;;;;25.01;18.74;97512.72;5022311;28;20565;-90
2021/03/12 11:08:37;;;;;;;10.27;7.20;;;;;;;24.22;19.99;97517.59;5023285;28;20059;-88
2021/03/12 11:11:07;;;;;;;13.60;5.88;;;;;;;24.88;20.04;97513.34;5023351;28;20041;-89
2021/03/12 11:13:36;;;;;;;10.50;6.82;;;;;;;24.75;20.47;97510.34;5021585;28;20032;-87
2021/03/12 11:16:03;;;;;;;11.23;6.22;;;;;;;24.94;19.29;97498.91;5022085;28;20480;-89
2021/03/12 11:18:30;;;;;;;12.05;5.38;;;;;;;24.53;20.29;97503.00;5039292;28;20491;-90
2021/03/12 11:20:59;;;;;;;8.35;5.40;;;;;;;23.03;20.93;97491.44;5023880;28;20032;-89
2021/03/12 11:23:25;;;;;;;12.23;6.95;;;;;;;22.88;21.31;97482.25;5022471;28;20024;-88
2021/03/12 11:25:52;;;;;;;12.23;7.53;;;;;;;22.73;22.80;97503.06;5024049;28;20025;-88
2021/03/12 11:28:17;;;;;;;13.65;5.93;;;;;;;21.57;22.72;97497.72;5039300;28;20491;-88
2021/03/12 11:30:43;;;;;;;8.48;5.63;;;;;;;20.53;23.22;97485.19;5021347;28;20032;-88
2021/03/12 11:33:09;;;;;;;51.53;9.25;;;;;;;20.82;24.54;97507.50;5021704;28;20033;-89
2021/03/12 11:35:34;;;;;;;26.20;7.95;;;;;;;20.90;25.26;97507.53;5038668;28;20032;-87
2021/03/12 11:38:00;;;;;;;16.65;6.57;;;;;;;20.42;25.97;97516.19;5022570;28;20512;-90
2021/03/12 11:40:26;;;;;;;10.50;6.30;;;;;;;21.27;24.39;97511.88;5023052;28;20034;-90
2021/03/12 11:42:51;;;;;;;10.52;6.13;;;;;;;19.73;25.19;97505.13;5024045;28;20096;-88
2021/03/12 11:45:18;;;;;;;18.02;8.57;;;;;;;19.00;26.42;97505.16;5022593;28;20045;-88
2021/03/12 11:47:45;;;;;;;10.10;5.85;;;;;;;17.83;26.94;97503.59;5021654;28;20114;-89
2021/03/12 11:50:22;;;;;;;12.02;6.32;;;;;;;16.45;29.33;97504.28;5023688;28;20037;-89